createdAt,value
2018-09-23T00:00:09.091Z,33.13
2018-09-23T00:02:36.626Z,32.57
2018-09-23T00:05:04.205Z,32.98
2018-09-23T00:07:31.632Z,33.23
2018-09-23T00:09:59.100Z,33.60
2018-09-23T00:12:26.761Z,33.89
2018-09-23T00:14:54.212Z,34.12
2018-09-23T00:17:21.656Z,34.04
2018-09-23T00:19:49.137Z,34.02
2018-09-23T00:22:16.641Z,34.15
2018-09-23T00:24:44.084Z,33.65
2018-09-23T00:27:11.543Z,33.63
2018-09-23T00:29:38.959Z,33.26
2018-09-23T00:32:06.401Z,32.70
2018-09-23T00:34:33.808Z,32.14
2018-09-23T00:37:01.271Z,31.87
2018-09-23T00:39:28.672Z,31.58
2018-09-23T00:41:56.096Z,31.40
2018-09-23T00:44:23.500Z,31.55
2018-09-23T00:46:50.934Z,31.60
2018-09-23T00:49:18.464Z,31.78
2018-09-23T00:51:45.887Z,31.84
2018-09-23T00:54:13.315Z,31.86
2018-09-23T00:56:40.720Z,31.84
2018-09-23T00:59:08.154Z,31.86
2018-09-23T01:01:35.610Z,31.82
2018-09-23T01:04:03.131Z,31.84
2018-09-23T01:06:30.564Z,31.68
2018-09-23T01:08:58.057Z,31.70
2018-09-23T01:11:25.533Z,31.75
2018-09-23T01:13:53.034Z,31.77
2018-09-23T01:16:20.541Z,31.84
2018-09-23T01:18:48.007Z,32.08
2018-09-23T01:21:15.562Z,32.12
2018-09-23T01:23:42.999Z,32.21
2018-09-23T01:26:11.306Z,32.46
2018-09-23T01:28:38.741Z,32.45
2018-09-23T01:31:06.175Z,32.76
2018-09-23T01:33:33.649Z,33.29
2018-09-23T01:36:01.045Z,33.38
2018-09-23T01:38:28.652Z,33.64
2018-09-23T01:40:56.079Z,34.14
2018-09-23T01:43:23.654Z,34.65
2018-09-23T01:45:51.442Z,35.10
2018-09-23T01:48:18.881Z,35.40
2018-09-23T01:50:46.269Z,35.84
2018-09-23T01:53:13.760Z,36.07
2018-09-23T01:55:41.211Z,36.19
2018-09-23T01:58:08.857Z,36.14
2018-09-23T02:00:36.264Z,36.15
2018-09-23T02:03:03.858Z,36.22
2018-09-23T02:05:32.363Z,36.37
2018-09-23T02:07:59.828Z,36.67
2018-09-23T02:10:27.835Z,36.93
2018-09-23T02:12:55.323Z,37.29
2018-09-23T02:15:22.793Z,37.52
2018-09-23T02:17:50.221Z,37.78
2018-09-23T02:20:17.648Z,38.02
2018-09-23T02:22:45.079Z,38.26
2018-09-23T02:25:12.536Z,38.57
2018-09-23T02:27:40.470Z,38.58
2018-09-23T02:30:07.868Z,38.74
2018-09-23T02:32:35.538Z,38.84
2018-09-23T02:35:02.998Z,38.67
2018-09-23T02:37:30.422Z,38.76
2018-09-23T02:39:57.859Z,38.83
2018-09-23T02:42:25.266Z,38.92
2018-09-23T02:44:52.702Z,38.98
2018-09-23T02:47:20.105Z,39.17
2018-09-23T02:49:47.514Z,39.24
2018-09-23T02:52:14.947Z,39.20
2018-09-23T02:54:42.379Z,39.38
2018-09-23T02:57:09.825Z,39.62
2018-09-23T02:59:37.271Z,39.67
2018-09-23T03:02:04.693Z,39.81
2018-09-23T03:04:32.091Z,39.81
2018-09-23T03:06:59.547Z,39.89
2018-09-23T03:09:27.024Z,39.75
2018-09-23T03:11:54.528Z,39.75
2018-09-23T03:14:21.925Z,39.93
2018-09-23T03:16:49.334Z,40.14
2018-09-23T03:19:16.779Z,40.25
2018-09-23T03:21:44.209Z,40.39
2018-09-23T03:24:11.685Z,40.62
2018-09-23T03:26:39.129Z,40.82
2018-09-23T03:29:06.588Z,40.88
2018-09-23T03:31:33.989Z,40.76
2018-09-23T03:34:01.429Z,40.75
2018-09-23T03:36:29.399Z,40.97
2018-09-23T03:38:57.145Z,41.22
2018-09-23T03:41:24.565Z,41.28
2018-09-23T03:43:52.417Z,41.29
2018-09-23T03:46:19.897Z,41.51
2018-09-23T03:48:47.332Z,41.49
2018-09-23T03:51:14.793Z,41.50
2018-09-23T03:53:42.466Z,41.61
2018-09-23T03:56:10.589Z,41.70
2018-09-23T03:58:38.084Z,41.77
2018-09-23T04:01:05.524Z,41.84
2018-09-23T04:03:33.561Z,41.69
2018-09-23T04:06:01.020Z,41.83
2018-09-23T04:08:28.470Z,41.44
2018-09-23T04:10:55.915Z,41.49
2018-09-23T04:13:23.347Z,41.36
2018-09-23T04:15:50.794Z,41.43
2018-09-23T04:18:18.323Z,41.33
2018-09-23T04:20:45.780Z,41.32
2018-09-23T04:23:13.176Z,41.67
2018-09-23T04:25:40.706Z,41.66
2018-09-23T04:28:08.185Z,41.63
2018-09-23T04:30:35.635Z,41.61
2018-09-23T04:33:03.074Z,41.77
2018-09-23T04:35:30.505Z,41.97
2018-09-23T04:37:58.589Z,41.91
2018-09-23T04:40:26.044Z,42.04
2018-09-23T04:42:53.489Z,42.33
2018-09-23T04:45:20.914Z,42.60
2018-09-23T04:47:48.388Z,42.74
2018-09-23T04:50:15.860Z,42.93
2018-09-23T04:52:43.308Z,43.01
2018-09-23T04:55:10.759Z,43.21
2018-09-23T04:57:38.144Z,43.21
2018-09-23T05:00:05.546Z,43.32
2018-09-23T05:02:33.012Z,43.64
2018-09-23T05:05:00.420Z,43.36
2018-09-23T05:07:27.870Z,43.48
2018-09-23T05:09:55.480Z,43.87
2018-09-23T05:12:22.906Z,43.93
2018-09-23T05:14:50.319Z,43.97
2018-09-23T05:17:17.753Z,44.11
2018-09-23T05:19:45.234Z,44.11
2018-09-23T05:22:12.641Z,44.21
2018-09-23T05:24:40.033Z,44.28
2018-09-23T05:27:07.491Z,44.09
2018-09-23T05:29:34.897Z,44.13
2018-09-23T05:32:02.379Z,44.36
2018-09-23T05:34:29.848Z,44.46
2018-09-23T05:36:57.282Z,44.67
2018-09-23T05:39:24.705Z,44.70
2018-09-23T05:41:52.135Z,44.67
2018-09-23T05:44:19.604Z,44.51
2018-09-23T05:46:47.035Z,44.52
2018-09-23T05:49:14.515Z,44.54
2018-09-23T05:51:42.079Z,44.80
2018-09-23T05:54:09.489Z,44.63
2018-09-23T05:56:37.017Z,44.49
2018-09-23T05:59:04.440Z,44.55
2018-09-23T06:01:31.878Z,44.64
2018-09-23T06:03:59.315Z,44.62
2018-09-23T06:06:27.212Z,44.55
2018-09-23T06:08:54.671Z,44.42
2018-09-23T06:11:22.089Z,44.39
2018-09-23T06:13:49.562Z,44.54
2018-09-23T06:16:16.996Z,44.54
2018-09-23T06:18:44.439Z,44.51
2018-09-23T06:21:11.825Z,44.16
2018-09-23T06:23:39.283Z,43.81
2018-09-23T06:26:06.715Z,43.61
2018-09-23T06:28:34.161Z,43.45
2018-09-23T06:31:01.589Z,43.27
2018-09-23T06:33:29.028Z,43.64
2018-09-23T06:35:56.566Z,43.68
2018-09-23T06:38:24.007Z,43.99
2018-09-23T06:40:51.470Z,44.24
2018-09-23T06:43:19.140Z,44.51
2018-09-23T06:45:46.665Z,44.62
2018-09-23T06:48:14.283Z,44.71
2018-09-23T06:50:41.746Z,44.91
2018-09-23T06:53:09.152Z,44.91
2018-09-23T06:55:36.619Z,45.17
2018-09-23T06:58:04.039Z,45.31
2018-09-23T07:00:31.558Z,45.68
2018-09-23T07:02:58.979Z,45.39
2018-09-23T07:05:26.437Z,45.79
2018-09-23T07:07:53.890Z,45.91
2018-09-23T07:10:21.402Z,45.63
2018-09-23T07:12:48.762Z,45.66
2018-09-23T07:15:16.204Z,45.63
2018-09-23T07:17:43.605Z,45.41
2018-09-23T07:20:11.151Z,45.28
2018-09-23T07:22:39.479Z,45.40
2018-09-23T07:25:06.972Z,45.44
2018-09-23T07:27:34.413Z,45.64
2018-09-23T07:30:01.990Z,45.75
2018-09-23T07:32:29.363Z,45.96
2018-09-23T07:34:56.802Z,46.44
2018-09-23T07:37:24.331Z,46.84
2018-09-23T07:39:51.834Z,47.28
2018-09-23T07:42:20.039Z,47.36
2018-09-23T07:44:47.513Z,47.49
2018-09-23T07:47:14.989Z,47.85
2018-09-23T07:49:42.935Z,48.13
2018-09-23T07:52:10.430Z,48.46
2018-09-23T07:54:37.867Z,48.49
2018-09-23T07:57:05.338Z,48.41
2018-09-23T07:59:32.778Z,48.45
2018-09-23T08:02:00.352Z,48.78
2018-09-23T08:04:27.839Z,48.95
2018-09-23T08:06:55.316Z,48.95
2018-09-23T08:09:22.837Z,49.17
2018-09-23T08:11:50.295Z,48.84
2018-09-23T08:14:17.985Z,48.58
2018-09-23T08:16:45.300Z,49.00
2018-09-23T08:19:12.829Z,49.19
2018-09-23T08:21:40.507Z,49.14
2018-09-23T08:24:07.974Z,49.05
2018-09-23T08:26:35.480Z,48.73
2018-09-23T08:29:02.958Z,48.61
2018-09-23T08:31:30.444Z,48.29
2018-09-23T08:33:57.893Z,48.01
2018-09-23T08:36:25.299Z,47.37
2018-09-23T08:38:52.752Z,47.19
2018-09-23T08:41:20.248Z,46.70
2018-09-23T08:43:47.698Z,46.29
2018-09-23T08:46:15.142Z,46.05
2018-09-23T08:48:42.628Z,46.05
2018-09-23T08:51:10.066Z,46.11
2018-09-23T08:53:37.506Z,46.06
2018-09-23T08:56:04.911Z,45.88
2018-09-23T08:58:32.465Z,45.85
2018-09-23T09:00:59.861Z,45.87
2018-09-23T09:03:27.277Z,45.60
2018-09-23T09:05:54.823Z,44.54
2018-09-23T09:08:22.241Z,43.91
2018-09-23T09:10:49.717Z,44.04
2018-09-23T09:13:17.195Z,44.12
2018-09-23T09:15:44.644Z,44.53
2018-09-23T09:18:12.191Z,44.79
2018-09-23T09:20:39.592Z,45.09
2018-09-23T09:23:07.101Z,45.27
2018-09-23T09:25:34.663Z,45.58
2018-09-23T09:28:02.249Z,45.39
2018-09-23T09:30:29.700Z,45.24
2018-09-23T09:32:57.127Z,45.23
2018-09-23T09:35:24.663Z,45.30
2018-09-23T09:37:52.104Z,45.31
2018-09-23T09:40:19.563Z,45.40
2018-09-23T09:42:47.681Z,45.27
2018-09-23T09:45:15.082Z,45.07
2018-09-23T09:47:42.561Z,45.12
2018-09-23T09:50:10.110Z,44.81
2018-09-23T09:52:37.546Z,44.79
2018-09-23T09:55:05.014Z,44.36
2018-09-23T09:57:32.480Z,44.19
2018-09-23T09:59:59.907Z,42.67
2018-09-23T10:02:27.395Z,40.92
2018-09-23T10:04:54.966Z,40.06
2018-09-23T10:07:22.448Z,40.18
2018-09-23T10:09:49.879Z,39.66
2018-09-23T10:12:16.838Z,39.00
2018-09-23T10:14:43.817Z,39.99
2018-09-23T10:17:10.856Z,40.63
2018-09-23T10:19:37.897Z,40.78
2018-09-23T10:22:04.919Z,40.57
2018-09-23T10:24:31.896Z,39.84
2018-09-23T10:26:59.327Z,39.44
2018-09-23T10:29:26.280Z,39.41
2018-09-23T10:31:53.328Z,39.18
2018-09-23T10:34:20.303Z,39.76
2018-09-23T10:36:47.440Z,39.21
2018-09-23T10:39:14.505Z,38.79
2018-09-23T10:41:42.070Z,39.39
2018-09-23T10:44:09.576Z,40.40
2018-09-23T10:46:37.170Z,41.41
2018-09-23T10:49:04.616Z,40.15
2018-09-23T10:51:32.063Z,39.15
2018-09-23T10:53:59.281Z,38.47
2018-09-23T10:56:26.372Z,38.09
2018-09-23T10:58:53.350Z,37.59
2018-09-23T11:01:20.388Z,37.34
2018-09-23T11:03:47.479Z,36.97
2018-09-23T11:06:14.424Z,36.78
2018-09-23T11:08:41.480Z,36.74
2018-09-23T11:11:08.980Z,36.54
2018-09-23T11:13:36.408Z,36.24
2018-09-23T11:16:03.853Z,35.97
2018-09-23T11:18:31.518Z,35.76
2018-09-23T11:20:58.984Z,35.00
2018-09-23T11:23:26.592Z,34.50
2018-09-23T11:25:54.034Z,34.62
2018-09-23T11:28:21.537Z,34.72
2018-09-23T11:30:49.162Z,34.65
2018-09-23T11:33:16.636Z,34.40
2018-09-23T11:35:44.097Z,34.38
2018-09-23T11:38:11.573Z,34.41
2018-09-23T11:40:39.212Z,34.16
2018-09-23T11:43:06.680Z,33.72
2018-09-23T11:45:34.143Z,33.71
2018-09-23T11:48:01.628Z,33.86
2018-09-23T11:50:29.051Z,33.55
2018-09-23T11:52:56.512Z,33.69
2018-09-23T11:55:24.581Z,33.57
2018-09-23T11:57:51.974Z,33.40
2018-09-23T12:00:20.083Z,33.61
2018-09-23T12:02:49.338Z,33.57
2018-09-23T12:05:16.780Z,33.56
2018-09-23T12:07:44.254Z,34.32
2018-09-23T12:10:11.787Z,34.04
2018-09-23T12:12:39.235Z,34.64
2018-09-23T12:15:06.688Z,35.26
2018-09-23T12:17:34.302Z,36.40
2018-09-23T12:20:01.702Z,36.78
2018-09-23T12:22:29.288Z,37.15
2018-09-23T12:24:56.842Z,36.59
2018-09-23T12:27:24.297Z,35.07
2018-09-23T12:29:51.678Z,34.45
2018-09-23T12:32:19.131Z,33.80
2018-09-23T12:34:46.556Z,33.50
2018-09-23T12:37:14.959Z,32.91
2018-09-23T12:39:42.483Z,32.95
2018-09-23T12:42:09.924Z,33.14
2018-09-23T12:44:37.369Z,32.94
2018-09-23T12:47:04.864Z,33.08
2018-09-23T12:49:32.341Z,32.33
2018-09-23T12:51:59.775Z,32.57
2018-09-23T12:54:27.207Z,32.21
2018-09-23T12:56:54.621Z,31.82
2018-09-23T12:59:22.168Z,32.02
2018-09-23T13:01:49.750Z,31.60
2018-09-23T13:04:16.811Z,31.34
2018-09-23T13:06:44.046Z,30.72
2018-09-23T13:09:11.043Z,30.90
2018-09-23T13:11:38.031Z,32.22
2018-09-23T13:14:05.529Z,31.77
2018-09-23T13:16:32.988Z,31.49
2018-09-23T13:19:00.400Z,32.00
2018-09-23T13:21:27.824Z,32.78
2018-09-23T13:23:55.256Z,33.10
2018-09-23T13:26:22.798Z,32.72
2018-09-23T13:28:50.229Z,31.92
2018-09-23T13:31:17.691Z,31.10
2018-09-23T13:33:45.134Z,30.92
2018-09-23T13:36:12.584Z,30.74
2018-09-23T13:38:40.118Z,30.82
2018-09-23T13:41:07.578Z,31.58
2018-09-23T13:43:35.030Z,32.33
2018-09-23T13:46:02.564Z,31.85
2018-09-23T13:48:30.012Z,31.65
2018-09-23T13:50:57.478Z,32.37
2018-09-23T13:53:25.694Z,31.83
2018-09-23T13:55:53.315Z,31.66
2018-09-23T13:58:20.931Z,31.53
2018-09-23T14:00:48.698Z,32.22
2018-09-23T14:03:16.230Z,33.20
2018-09-23T14:05:43.742Z,32.77
2018-09-23T14:08:11.702Z,33.50
2018-09-23T14:10:39.179Z,34.24
2018-09-23T14:13:07.143Z,34.75
2018-09-23T14:15:34.589Z,34.94
2018-09-23T14:18:02.041Z,35.09
2018-09-23T14:20:29.475Z,35.47
2018-09-23T14:22:56.957Z,35.53
2018-09-23T14:25:24.795Z,35.23
2018-09-23T14:27:52.329Z,35.07
2018-09-23T14:30:19.785Z,33.81
2018-09-23T14:32:48.001Z,32.88
2018-09-23T14:35:15.466Z,32.24
2018-09-23T14:37:44.046Z,31.72
2018-09-23T14:40:11.760Z,31.58
2018-09-23T14:42:39.183Z,31.57
2018-09-23T14:45:06.632Z,32.25
2018-09-23T14:47:34.092Z,32.94
2018-09-23T14:50:01.575Z,33.62
2018-09-23T14:52:28.981Z,34.06
2018-09-23T14:54:56.554Z,34.59
2018-09-23T14:57:23.877Z,34.55
2018-09-23T14:59:54.364Z,33.80
2018-09-23T15:02:18.866Z,33.06
2018-09-23T15:04:46.350Z,32.55
2018-09-23T15:07:13.883Z,32.28
2018-09-23T15:09:41.312Z,32.45
2018-09-23T15:12:08.746Z,33.29
2018-09-23T15:14:36.316Z,34.01
2018-09-23T15:17:03.756Z,34.33
2018-09-23T15:19:31.197Z,34.56
2018-09-23T15:21:58.661Z,34.87
2018-09-23T15:24:26.085Z,34.81
2018-09-23T15:26:53.558Z,35.24
2018-09-23T15:29:21.435Z,35.57
2018-09-23T15:31:48.881Z,36.05
2018-09-23T15:34:16.405Z,36.29
2018-09-23T15:36:43.902Z,36.46
2018-09-23T15:39:11.328Z,36.70
2018-09-23T15:41:38.762Z,36.89
2018-09-23T15:44:06.216Z,36.73
2018-09-23T15:46:33.628Z,36.52
2018-09-23T15:49:01.133Z,36.42
2018-09-23T15:51:28.597Z,36.20
2018-09-23T15:53:56.028Z,36.60
2018-09-23T15:56:23.483Z,36.99
2018-09-23T15:58:50.950Z,37.41
2018-09-23T16:01:18.436Z,37.54
2018-09-23T16:03:46.570Z,37.46
2018-09-23T16:06:14.046Z,36.88
2018-09-23T16:08:41.494Z,37.21
2018-09-23T16:11:08.956Z,37.42
2018-09-23T16:13:36.394Z,37.54
2018-09-23T16:16:03.902Z,37.75
2018-09-23T16:18:31.554Z,38.17
2018-09-23T16:20:58.905Z,38.26
2018-09-23T16:23:26.375Z,38.08
2018-09-23T16:25:54.066Z,38.11
2018-09-23T16:28:21.480Z,38.13
2018-09-23T16:30:48.931Z,38.12
2018-09-23T16:33:16.380Z,38.27
2018-09-23T16:35:43.907Z,38.37
2018-09-23T16:38:11.357Z,38.57
2018-09-23T16:40:38.808Z,38.61
2018-09-23T16:43:06.284Z,38.92
2018-09-23T16:45:33.977Z,39.06
2018-09-23T16:48:01.415Z,39.19
2018-09-23T16:50:28.890Z,39.37
2018-09-23T16:52:56.383Z,39.49
2018-09-23T16:55:23.909Z,39.65
2018-09-23T16:57:51.416Z,39.78
2018-09-23T17:00:18.873Z,39.86
2018-09-23T17:02:46.410Z,39.95
2018-09-23T17:05:13.897Z,39.97
2018-09-23T17:07:41.330Z,40.13
2018-09-23T17:10:08.776Z,40.07
2018-09-23T17:12:36.174Z,40.17
2018-09-23T17:15:03.157Z,40.23
2018-09-23T17:17:30.626Z,40.38
2018-09-23T17:19:58.058Z,40.48
2018-09-23T17:22:25.489Z,40.72
2018-09-23T17:24:52.927Z,40.88
2018-09-23T17:27:20.391Z,41.02
2018-09-23T17:29:47.897Z,41.18
2018-09-23T17:32:15.358Z,41.35
2018-09-23T17:34:42.464Z,41.86
2018-09-23T17:37:09.438Z,42.69
2018-09-23T17:39:36.492Z,43.38
2018-09-23T17:42:03.908Z,44.21
2018-09-23T17:44:31.398Z,45.27
2018-09-23T17:46:59.040Z,45.65
2018-09-23T17:49:26.499Z,46.82
2018-09-23T17:51:54.404Z,47.93
2018-09-23T17:54:21.888Z,48.50
2018-09-23T17:56:48.878Z,49.30
2018-09-23T17:59:15.952Z,49.81
2018-09-23T18:01:43.459Z,50.63
2018-09-23T18:04:10.924Z,50.83
2018-09-23T18:06:38.031Z,51.30
2018-09-23T18:09:05.426Z,51.79
2018-09-23T18:11:32.940Z,51.92
2018-09-23T18:13:59.865Z,51.96
2018-09-23T18:16:26.852Z,52.08
2018-09-23T18:18:54.300Z,51.98
2018-09-23T18:21:21.728Z,51.88
2018-09-23T18:23:49.302Z,52.06
2018-09-23T18:26:16.297Z,52.10
2018-09-23T18:28:43.262Z,52.19
2018-09-23T18:31:10.255Z,52.08
2018-09-23T18:33:37.243Z,52.27
2018-09-23T18:36:04.190Z,52.28
2018-09-23T18:38:31.198Z,52.23
2018-09-23T18:40:58.161Z,52.05
2018-09-23T18:43:25.134Z,52.04
2018-09-23T18:45:52.107Z,51.78
2018-09-23T18:48:19.039Z,51.50
2018-09-23T18:50:46.107Z,51.35
2018-09-23T18:53:13.061Z,51.30
2018-09-23T18:55:40.011Z,51.46
2018-09-23T18:58:07.018Z,51.71
2018-09-23T19:00:34.012Z,51.91
2018-09-23T19:03:00.989Z,51.93
2018-09-23T19:05:27.952Z,51.84
2018-09-23T19:07:54.947Z,51.91
2018-09-23T19:10:21.939Z,51.83
2018-09-23T19:12:48.935Z,51.97
2018-09-23T19:15:15.927Z,51.90
2018-09-23T19:17:43.330Z,51.21
2018-09-23T19:20:10.731Z,51.22
2018-09-23T19:22:38.160Z,51.33
2018-09-23T19:25:05.599Z,51.32
2018-09-23T19:27:33.057Z,51.06
2018-09-23T19:30:00.543Z,50.75
2018-09-23T19:32:28.050Z,50.62
2018-09-23T19:34:55.470Z,50.80
2018-09-23T19:37:22.936Z,51.15
2018-09-23T19:39:50.338Z,51.33
2018-09-23T19:42:17.802Z,51.50
2018-09-23T19:44:45.239Z,51.54
2018-09-23T19:47:12.712Z,51.45
2018-09-23T19:49:40.157Z,51.55
2018-09-23T19:52:07.627Z,51.43
2018-09-23T19:54:35.128Z,51.35
2018-09-23T19:57:02.556Z,51.29
2018-09-23T19:59:30.032Z,51.03
2018-09-23T20:01:57.516Z,50.94
2018-09-23T20:04:24.985Z,50.94
2018-09-23T20:06:52.720Z,51.02
2018-09-23T20:09:20.140Z,50.97
2018-09-23T20:11:47.823Z,50.91
2018-09-23T20:14:15.230Z,50.92
2018-09-23T20:16:42.628Z,50.92
2018-09-23T20:19:10.109Z,50.89
2018-09-23T20:21:38.212Z,50.87
2018-09-23T20:24:05.675Z,50.78
2018-09-23T20:26:33.700Z,50.82
2018-09-23T20:29:01.127Z,50.70
2018-09-23T20:31:28.520Z,50.73
2018-09-23T20:33:56.044Z,50.73
2018-09-23T20:36:23.468Z,50.73
2018-09-23T20:38:51.076Z,50.83
2018-09-23T20:41:18.503Z,50.88
2018-09-23T20:43:45.996Z,50.71
2018-09-23T20:46:13.401Z,50.56
2018-09-23T20:48:40.825Z,49.88
2018-09-23T20:51:08.282Z,49.33
2018-09-23T20:53:35.924Z,52.70
2018-09-23T20:56:03.361Z,56.11
2018-09-23T20:58:30.777Z,59.00
2018-09-23T21:00:58.206Z,59.44
2018-09-23T21:03:25.694Z,59.71
2018-09-23T21:05:53.167Z,60.51
2018-09-23T21:08:20.597Z,60.19
2018-09-23T21:10:48.104Z,60.36
2018-09-23T21:13:15.545Z,59.83
2018-09-23T21:15:42.997Z,59.11
2018-09-23T21:18:10.399Z,58.68
2018-09-23T21:20:37.848Z,59.22
2018-09-23T21:23:05.272Z,59.37
2018-09-23T21:25:32.751Z,58.90
2018-09-23T21:28:00.183Z,58.58
2018-09-23T21:30:27.615Z,61.47
2018-09-23T21:32:55.038Z,62.15
2018-09-23T21:35:22.510Z,63.43
2018-09-23T21:37:50.001Z,64.64
2018-09-23T21:40:17.477Z,65.57
2018-09-23T21:42:44.923Z,66.29
2018-09-23T21:45:12.323Z,67.24
2018-09-23T21:47:39.740Z,66.30
2018-09-23T21:50:07.142Z,66.81
2018-09-23T21:52:34.585Z,66.49
2018-09-23T21:55:02.007Z,66.57
2018-09-23T21:57:29.406Z,68.07
2018-09-23T21:59:56.840Z,68.56
2018-09-23T22:02:24.249Z,68.94
2018-09-23T22:04:51.663Z,69.82
2018-09-23T22:07:19.114Z,69.83
2018-09-23T22:09:46.580Z,70.59
2018-09-23T22:12:14.034Z,70.91
2018-09-23T22:14:41.430Z,70.82
2018-09-23T22:17:08.844Z,71.14
2018-09-23T22:19:36.322Z,71.54
2018-09-23T22:22:03.731Z,71.53
2018-09-23T22:24:31.156Z,71.90
2018-09-23T22:26:58.591Z,71.89
2018-09-23T22:29:26.034Z,72.13
2018-09-23T22:31:53.499Z,72.26
2018-09-23T22:34:20.899Z,71.58
2018-09-23T22:36:48.308Z,70.92
2018-09-23T22:39:15.765Z,72.34
2018-09-23T22:41:43.186Z,71.55
2018-09-23T22:44:10.639Z,71.55
2018-09-23T22:46:38.073Z,71.38
2018-09-23T22:49:05.556Z,70.59
2018-09-23T22:51:33.001Z,69.95
2018-09-23T22:54:00.472Z,68.84
2018-09-23T22:56:27.904Z,68.46
2018-09-23T22:58:55.461Z,68.50
2018-09-23T23:01:22.846Z,68.75
2018-09-23T23:03:50.287Z,68.45
2018-09-23T23:06:17.690Z,67.71
2018-09-23T23:08:45.203Z,67.67
2018-09-23T23:11:12.678Z,68.00
2018-09-23T23:13:40.103Z,67.93
2018-09-23T23:16:07.494Z,68.44
2018-09-23T23:18:34.931Z,68.72
2018-09-23T23:21:02.355Z,69.52
2018-09-23T23:23:29.753Z,70.17
2018-09-23T23:25:57.184Z,70.43
2018-09-23T23:28:24.616Z,71.33
2018-09-23T23:30:52.041Z,71.23
2018-09-23T23:33:19.530Z,70.86
2018-09-23T23:35:47.028Z,70.47
2018-09-23T23:38:14.486Z,70.41
2018-09-23T23:40:41.922Z,70.18
2018-09-23T23:43:09.543Z,69.57
2018-09-23T23:45:36.992Z,69.04
2018-09-23T23:48:04.445Z,69.17
2018-09-23T23:50:31.884Z,68.79
2018-09-23T23:52:59.339Z,68.44
2018-09-23T23:55:26.745Z,66.97
2018-09-23T23:57:54.183Z,65.39
